Time;durP1;ratioP1;P1;durP2;ratioP2;P2;SDS_P1;SDS_P2;PMS_P1;PMS_P2;Temp;Humidity;BMP_temperature;BMP_pressure;BME280_temperature;BME280_humidity;BME280_pressure;Samples;Min_cycle;Max_cycle;Signal;HPM_P1;HPM_P2
2021/11/14 00:00:48;;;;;;;2.75;1.70;;;21.30;53.30;;;;;;5034795;28;20174;-58
2021/11/14 00:03:14;;;;;;;2.60;1.70;;;21.30;53.30;;;;;;5040106;28;20023;-59
2021/11/14 00:05:41;;;;;;;2.63;1.77;;;21.30;53.30;;;;;;5041805;28;20041;-60
2021/11/14 00:08:08;;;;;;;2.20;1.55;;;21.30;53.30;;;;;;5036556;28;20444;-57
2021/11/14 00:10:35;;;;;;;2.40;1.60;;;21.30;53.40;;;;;;5037183;28;20021;-61
2021/11/14 00:13:02;;;;;;;2.42;1.50;;;21.30;53.40;;;;;;5037496;28;21855;-58
2021/11/14 00:15:27;;;;;;;2.88;1.77;;;21.20;53.30;;;;;;5036846;28;20174;-60
2021/11/14 00:17:53;;;;;;;2.17;1.55;;;21.30;53.40;;;;;;5041131;28;20026;-57
2021/11/14 00:20:19;;;;;;;2.10;1.50;;;21.20;53.40;;;;;;5033364;28;20051;-59
2021/11/14 00:22:45;;;;;;;2.28;1.58;;;21.20;53.40;;;;;;5037560;28;20479;-60
2021/11/14 00:25:14;;;;;;;2.60;1.75;;;21.20;53.40;;;;;;5039126;28;20108;-59
2021/11/14 00:27:43;;;;;;;2.30;1.52;;;21.20;53.40;;;;;;5041294;28;20021;-60
2021/11/14 00:30:09;;;;;;;;;;;21.20;53.40;;;;;;5038595;28;20032;-60
2021/11/14 00:32:35;;;;;;;2.30;1.70;;;21.20;53.50;;;;;;5039041;28;20562;-60
2021/11/14 00:35:03;;;;;;;2.42;1.70;;;21.20;53.50;;;;;;5035713;28;20040;-60
2021/11/14 00:37:29;;;;;;;3.40;1.58;;;21.20;53.40;;;;;;5043911;28;20036;-59
2021/11/14 00:39:55;;;;;;;2.10;1.50;;;21.10;53.40;;;;;;5037464;28;20040;-61
2021/11/14 00:42:21;;;;;;;2.42;1.60;;;21.20;53.50;;;;;;5036034;28;20021;-59
2021/11/14 00:44:46;;;;;;;2.67;1.80;;;21.10;53.40;;;;;;5033957;28;20929;-60
2021/11/14 00:47:12;;;;;;;2.30;1.63;;;21.10;54.00;;;;;;5044777;28;20093;-58
2021/11/14 00:49:38;;;;;;;2.38;1.50;;;21.10;53.50;;;;;;5037186;28;20112;-59
2021/11/14 00:52:04;;;;;;;2.22;1.63;;;21.10;53.50;;;;;;5036672;28;20032;-60
2021/11/14 00:54:30;;;;;;;2.00;1.48;;;21.10;53.50;;;;;;5032664;28;20048;-61
2021/11/14 00:56:56;;;;;;;2.55;1.67;;;21.10;53.50;;;;;;5036901;28;20040;-61
2021/11/14 00:59:21;;;;;;;2.22;1.70;;;21.10;53.50;;;;;;5032919;28;20020;-60
2021/11/14 01:01:47;;;;;;;2.80;1.70;;;21.10;53.50;;;;;;5037293;28;20044;-59
2021/11/14 01:04:13;;;;;;;2.50;1.70;;;21.10;53.50;;;;;;5029786;28;20065;-59
2021/11/14 01:06:38;;;;;;;2.13;1.50;;;21.10;53.50;;;;;;5039592;28;20090;-54
2021/11/14 01:09:04;;;;;;;2.50;1.65;;;21.10;53.60;;;;;;5040240;28;20036;-59
2021/11/14 01:11:30;;;;;;;1.88;1.50;;;21.00;53.50;;;;;;5034859;28;20055;-60
2021/11/14 01:13:56;;;;;;;2.28;1.60;;;21.00;53.60;;;;;;5033640;28;20171;-54
2021/11/14 01:16:23;;;;;;;2.22;1.50;;;21.00;53.50;;;;;;5038249;28;20116;-61
2021/11/14 01:18:49;;;;;;;2.67;1.50;;;21.00;53.50;;;;;;5028692;28;20422;-60
2021/11/14 01:21:16;;;;;;;2.25;1.52;;;21.00;53.60;;;;;;5042814;28;20044;-54
2021/11/14 01:23:43;;;;;;;2.22;1.60;;;21.00;53.60;;;;;;5038009;28;20840;-60
2021/11/14 01:26:08;;;;;;;2.50;2.00;;;21.00;53.60;;;;;;5032649;28;20065;-58
2021/11/14 01:28:34;;;;;;;2.30;1.50;;;21.00;53.60;;;;;;5032316;28;20065;-60
2021/11/14 01:31:00;;;;;;;2.25;1.50;;;21.00;53.60;;;;;;5034265;28;20147;-57
2021/11/14 01:33:28;;;;;;;2.25;1.60;;;21.00;53.60;;;;;;5037033;28;20033;-57
2021/11/14 01:35:55;;;;;;;2.67;1.60;;;21.00;53.60;;;;;;5036857;28;20512;-61
2021/11/14 01:38:21;;;;;;;2.33;1.67;;;21.00;53.70;;;;;;5032650;28;20032;-59
2021/11/14 01:40:51;;;;;;;2.00;1.50;;;20.90;53.60;;;;;;5034357;28;20289;-59
2021/11/14 01:43:27;;;;;;;2.20;1.60;;;20.90;53.60;;;;;;5035307;28;20036;-60
2021/11/14 01:45:53;;;;;;;2.30;1.70;;;20.90;53.70;;;;;;5038048;28;20074;-60
2021/11/14 01:48:19;;;;;;;2.10;1.50;;;20.90;53.70;;;;;;5032929;28;20060;-58
2021/11/14 01:50:45;;;;;;;2.40;1.70;;;20.90;53.60;;;;;;5038605;28;20083;-60
2021/11/14 01:53:12;;;;;;;2.53;1.55;;;20.90;53.60;;;;;;5031441;28;20053;-61
2021/11/14 01:55:42;;;;;;;2.35;1.60;;;20.90;53.60;;;;;;5035099;28;20072;-61
2021/11/14 01:58:10;;;;;;;2.22;1.55;;;20.90;53.70;;;;;;5040499;28;20029;-59
2021/11/14 02:00:40;;;;;;;2.65;1.60;;;20.90;53.70;;;;;;5031511;28;20044;-60
2021/11/14 02:03:06;;;;;;;2.22;1.60;;;20.90;53.70;;;;;;5041320;28;20053;-59
2021/11/14 02:05:33;;;;;;;2.17;1.67;;;20.90;53.70;;;;;;5036635;28;20150;-60
2021/11/14 02:08:02;;;;;;;2.05;1.42;;;20.90;53.70;;;;;;5028370;28;20029;-60
2021/11/14 02:10:29;;;;;;;3.15;1.50;;;20.80;53.70;;;;;;5036711;28;20056;-57
2021/11/14 02:12:56;;;;;;;2.78;1.60;;;20.90;53.70;;;;;;5031352;28;20037;-60
2021/11/14 02:15:22;;;;;;;2.28;1.60;;;20.80;53.70;;;;;;5031014;28;20739;-58
2021/11/14 02:17:48;;;;;;;2.38;1.77;;;20.80;53.30;;;;;;5032409;28;20124;-58
2021/11/14 02:20:16;;;;;;;2.80;1.70;;;20.80;53.70;;;;;;5032620;28;20037;-59
2021/11/14 02:22:42;;;;;;;2.25;1.52;;;20.80;53.70;;;;;;5029537;28;20029;-61
2021/11/14 02:25:11;;;;;;;2.45;1.60;;;20.80;53.70;;;;;;5034406;28;20028;-52
2021/11/14 02:27:37;;;;;;;1.85;1.40;;;20.80;53.70;;;;;;5034082;28;20053;-56
2021/11/14 02:30:08;;;;;;;2.60;1.83;;;20.80;53.70;;;;;;5035189;28;20052;-60
2021/11/14 02:32:34;;;;;;;2.42;1.80;;;20.80;53.70;;;;;;5039852;28;20038;-53
2021/11/14 02:34:59;;;;;;;3.45;1.75;;;20.80;53.70;;;;;;5036618;28;20059;-58
2021/11/14 02:37:25;;;;;;;2.65;1.75;;;20.80;53.70;;;;;;5035951;28;20677;-60
2021/11/14 02:39:51;;;;;;;2.28;1.70;;;20.80;53.70;;;;;;5034118;28;20081;-58
2021/11/14 02:42:16;;;;;;;1.98;1.55;;;20.80;53.70;;;;;;5036973;28;20029;-55
2021/11/14 02:44:42;;;;;;;1.90;1.50;;;20.80;53.80;;;;;;5037399;28;20393;-60
2021/11/14 02:47:08;;;;;;;2.10;1.50;;;20.80;53.80;;;;;;5040511;28;20402;-61
2021/11/14 02:49:33;;;;;;;2.08;1.50;;;20.70;53.70;;;;;;5037642;28;20364;-60
2021/11/14 02:51:59;;;;;;;2.35;1.60;;;20.70;53.70;;;;;;5033394;28;20712;-58
2021/11/14 02:54:25;;;;;;;2.05;1.50;;;20.70;53.70;;;;;;5036497;28;20449;-59
2021/11/14 02:56:50;;;;;;;2.30;1.60;;;20.70;53.70;;;;;;5040967;28;20017;-60
2021/11/14 02:59:16;;;;;;;3.00;1.70;;;20.70;53.70;;;;;;5034845;28;20474;-59
2021/11/14 03:01:46;;;;;;;2.03;1.50;;;20.70;53.80;;;;;;5035568;28;20120;-58
2021/11/14 03:04:17;;;;;;;2.13;1.50;;;20.70;53.70;;;;;;5034259;28;20098;-58
2021/11/14 03:06:44;;;;;;;1.95;1.60;;;20.70;53.80;;;;;;5031879;28;20032;-60
2021/11/14 03:09:09;;;;;;;2.38;1.80;;;20.70;53.80;;;;;;5040101;28;20110;-58
2021/11/14 03:11:35;;;;;;;2.40;1.65;;;20.70;53.80;;;;;;5040746;28;20068;-60
2021/11/14 03:14:01;;;;;;;2.22;1.73;;;20.70;53.80;;;;;;5033977;28;20632;-60
2021/11/14 03:16:27;;;;;;;2.15;1.50;;;20.70;53.80;;;;;;5039110;28;20566;-54
2021/11/14 03:18:54;;;;;;;2.17;1.50;;;20.60;53.70;;;;;;5033325;28;20099;-59
2021/11/14 03:21:20;;;;;;;1.95;1.45;;;20.70;53.80;;;;;;5041296;28;20517;-59
2021/11/14 03:23:46;;;;;;;2.20;1.55;;;20.60;53.70;;;;;;5034023;28;20112;-60
2021/11/14 03:26:12;;;;;;;2.17;1.60;;;20.60;53.70;;;;;;5039285;28;20048;-59
2021/11/14 03:28:38;;;;;;;2.25;1.52;;;20.60;53.70;;;;;;5039525;28;20044;-60
2021/11/14 03:31:03;;;;;;;1.95;1.48;;;20.60;53.70;;;;;;5046360;28;20785;-59
2021/11/14 03:33:29;;;;;;;2.55;1.75;;;20.60;53.80;;;;;;5046060;28;20036;-57
2021/11/14 03:36:08;;;;;;;2.50;1.60;;;20.60;53.80;;;;;;5072232;28;20069;-59
2021/11/14 03:38:58;;;;;;;2.00;1.50;;;20.60;53.80;;;;;;5035033;28;20040;-60
2021/11/14 03:41:27;;;;;;;2.25;1.50;;;20.60;53.80;;;;;;5038053;28;20040;-59
2021/11/14 03:43:53;;;;;;;2.40;1.80;;;20.60;54.30;;;;;;5031637;28;20045;-59
2021/11/14 03:46:20;;;;;;;2.05;1.50;;;20.60;53.80;;;;;;5036785;28;20033;-60
2021/11/14 03:48:49;;;;;;;2.17;1.50;;;20.60;53.80;;;;;;5034737;28;20032;-57
2021/11/14 03:51:16;;;;;;;2.38;1.60;;;20.60;53.80;;;;;;5041106;28;20069;-54
2021/11/14 03:53:42;;;;;;;2.10;1.50;;;20.60;53.80;;;;;;5033853;28;20072;-60
2021/11/14 03:56:08;;;;;;;2.20;1.55;;;20.60;53.80;;;;;;5038471;28;20024;-57
2021/11/14 03:58:35;;;;;;;1.95;1.40;;;20.60;53.80;;;;;;5036396;28;20033;-58
2021/11/14 04:01:04;;;;;;;2.25;1.60;;;20.60;53.80;;;;;;5033538;28;20095;-57
2021/11/14 04:03:30;;;;;;;2.28;1.70;;;20.60;53.80;;;;;;5043060;28;20076;-59
2021/11/14 04:05:57;;;;;;;2.20;1.50;;;20.60;53.80;;;;;;5035687;28;20596;-60
2021/11/14 04:08:24;;;;;;;2.20;1.60;;;20.60;53.80;;;;;;5035653;28;20131;-53
2021/11/14 04:10:52;;;;;;;2.00;1.50;;;20.60;53.80;;;;;;5033511;28;20120;-60
2021/11/14 04:13:18;;;;;;;1.92;1.48;;;20.60;53.80;;;;;;5035782;28;20029;-58
2021/11/14 04:15:44;;;;;;;1.95;1.50;;;20.50;53.80;;;;;;5039200;28;20047;-57
2021/11/14 04:18:10;;;;;;;2.20;1.58;;;20.50;53.80;;;;;;5044104;28;20037;-57
2021/11/14 04:20:38;;;;;;;2.00;1.50;;;20.50;53.80;;;;;;5034985;28;20039;-59
2021/11/14 04:23:05;;;;;;;2.15;1.52;;;20.50;53.80;;;;;;5041289;28;20419;-60
2021/11/14 04:25:33;;;;;;;1.90;1.50;;;20.50;53.70;;;;;;5036833;28;20673;-56
2021/11/14 04:27:59;;;;;;;2.42;1.50;;;20.50;53.70;;;;;;5038426;28;20056;-60
2021/11/14 04:30:26;;;;;;;2.30;1.50;;;20.50;53.70;;;;;;5036866;28;20048;-59
2021/11/14 04:32:53;;;;;;;2.10;1.60;;;20.50;53.80;;;;;;5045245;28;20115;-60
2021/11/14 04:35:19;;;;;;;1.90;1.50;;;20.50;53.80;;;;;;5043549;28;20035;-60
2021/11/14 04:37:51;;;;;;;2.17;1.50;;;20.50;53.80;;;;;;5037199;28;20129;-60
2021/11/14 04:40:23;;;;;;;1.90;1.50;;;20.50;53.80;;;;;;5034614;28;20032;-59
2021/11/14 04:42:50;;;;;;;2.03;1.50;;;20.50;53.80;;;;;;5036477;28;20470;-60
2021/11/14 04:45:16;;;;;;;1.80;1.40;;;20.50;53.70;;;;;;5036314;28;20025;-59
2021/11/14 04:47:42;;;;;;;1.98;1.50;;;20.50;53.80;;;;;;5033704;28;20041;-59
2021/11/14 04:50:10;;;;;;;2.00;1.40;;;20.50;53.80;;;;;;5034229;28;20036;-56
2021/11/14 04:52:37;;;;;;;1.80;1.40;;;20.50;53.80;;;;;;5042946;28;20404;-56
2021/11/14 04:55:04;;;;;;;2.00;1.50;;;20.50;53.80;;;;;;5042811;28;20032;-55
2021/11/14 04:57:30;;;;;;;1.98;1.58;;;20.40;53.70;;;;;;5036403;28;20049;-60
2021/11/14 04:59:55;;;;;;;1.90;1.38;;;20.50;53.80;;;;;;5037843;28;20021;-60
2021/11/14 05:02:21;;;;;;;2.17;1.60;;;20.40;53.70;;;;;;5032307;28;20033;-59
2021/11/14 05:04:47;;;;;;;2.40;1.70;;;20.40;53.80;;;;;;5030418;28;20163;-60
2021/11/14 05:07:12;;;;;;;2.17;1.40;;;20.40;53.80;;;;;;5043469;28;20041;-60
2021/11/14 05:09:38;;;;;;;2.30;1.52;;;20.40;53.70;;;;;;5033895;28;20046;-58
2021/11/14 05:12:05;;;;;;;2.35;1.50;;;20.40;53.80;;;;;;5042448;28;20120;-58
2021/11/14 05:14:31;;;;;;;2.28;1.58;;;20.40;53.80;;;;;;5038589;28;21030;-60
2021/11/14 05:16:56;;;;;;;2.22;1.65;;;20.40;53.80;;;;;;5038580;28;20029;-58
2021/11/14 05:19:22;;;;;;;2.05;1.40;;;20.40;53.80;;;;;;5038575;28;20373;-60
2021/11/14 05:21:48;;;;;;;2.00;1.40;;;20.40;53.80;;;;;;5041172;28;20071;-60
2021/11/14 05:24:13;;;;;;;1.90;1.50;;;20.40;53.80;;;;;;5038748;28;20068;-58
2021/11/14 05:26:39;;;;;;;1.80;1.30;;;20.40;53.80;;;;;;5034181;28;20080;-60
2021/11/14 05:29:05;;;;;;;2.20;1.50;;;20.50;53.80;;;;;;5034446;28;20147;-55
2021/11/14 05:31:31;;;;;;;2.13;1.50;;;20.40;53.80;;;;;;5041599;28;20049;-56
2021/11/14 05:33:57;;;;;;;2.33;1.63;;;20.40;53.80;;;;;;5030490;28;20455;-59
2021/11/14 05:36:23;;;;;;;2.20;1.42;;;20.40;53.80;;;;;;5033609;28;20029;-60
2021/11/14 05:38:52;;;;;;;2.00;1.50;;;20.40;53.80;;;;;;5033731;28;20135;-60
2021/11/14 05:41:19;;;;;;;1.80;1.30;;;20.40;53.80;;;;;;5038946;28;20100;-59
2021/11/14 05:43:45;;;;;;;2.03;1.50;;;20.40;53.80;;;;;;5036843;28;20056;-60
2021/11/14 05:46:11;;;;;;;2.47;1.60;;;20.40;53.80;;;;;;5041429;28;20554;-60
2021/11/14 05:48:37;;;;;;;1.90;1.30;;;20.40;53.80;;;;;;5029625;28;20060;-61
2021/11/14 05:51:03;;;;;;;1.83;1.45;;;20.40;54.30;;;;;;5031052;28;20129;-55
2021/11/14 05:53:29;;;;;;;2.30;1.55;;;20.40;53.80;;;;;;5033147;28;20537;-59
2021/11/14 05:55:55;;;;;;;2.80;1.48;;;20.40;53.80;;;;;;5030792;28;20120;-59
2021/11/14 05:58:26;;;;;;;2.08;1.50;;;20.40;53.80;;;;;;5032808;28;20021;-60
2021/11/14 06:01:05;;;;;;;2.80;1.73;;;20.40;53.80;;;;;;5035182;28;20044;-60
2021/11/14 06:03:42;;;;;;;2.33;1.50;;;20.40;53.80;;;;;;5033815;28;20139;-59
2021/11/14 06:06:08;;;;;;;2.25;1.55;;;20.40;53.80;;;;;;5031661;28;20051;-56
2021/11/14 06:08:34;;;;;;;2.88;1.70;;;20.40;53.80;;;;;;5036370;28;20036;-56
2021/11/14 06:11:00;;;;;;;2.40;1.60;;;20.40;53.80;;;;;;5035775;28;20029;-59
2021/11/14 06:13:28;;;;;;;2.13;1.55;;;20.40;53.80;;;;;;5041110;28;20361;-59
2021/11/14 06:15:54;;;;;;;1.95;1.50;;;20.40;53.80;;;;;;5030377;28;21928;-60
2021/11/14 06:18:20;;;;;;;2.50;1.70;;;20.40;53.80;;;;;;5037467;28;20016;-57
2021/11/14 06:20:47;;;;;;;2.15;1.50;;;20.40;53.90;;;;;;5031817;28;20163;-60
2021/11/14 06:23:13;;;;;;;2.50;1.73;;;20.40;53.90;;;;;;5041722;28;20032;-60
2021/11/14 06:25:40;;;;;;;2.00;1.50;;;20.40;53.90;;;;;;5032092;28;20056;-58
2021/11/14 06:28:06;;;;;;;2.00;1.45;;;20.40;53.90;;;;;;5039528;28;20045;-60
2021/11/14 06:30:31;;;;;;;2.17;1.58;;;20.40;53.80;;;;;;5038267;28;20053;-57
2021/11/14 06:32:57;;;;;;;1.98;1.42;;;20.40;53.90;;;;;;5057282;28;20031;-60
2021/11/14 06:35:24;;;;;;;1.95;1.50;;;20.40;53.90;;;;;;5045886;28;20055;-58
2021/11/14 06:37:50;;;;;;;2.95;1.60;;;20.40;53.90;;;;;;5036494;28;20035;-60
2021/11/14 06:40:16;;;;;;;1.80;1.40;;;20.30;53.90;;;;;;5034987;28;20029;-60
2021/11/14 06:42:42;;;;;;;2.70;1.48;;;20.30;53.90;;;;;;5036105;28;20035;-60
2021/11/14 06:45:09;;;;;;;2.08;1.40;;;20.30;53.90;;;;;;5030582;28;20724;-58
2021/11/14 06:47:35;;;;;;;2.08;1.50;;;20.30;53.90;;;;;;5041477;28;20782;-60
2021/11/14 06:50:01;;;;;;;1.92;1.40;;;20.30;53.90;;;;;;5036853;28;20065;-58
2021/11/14 06:52:27;;;;;;;2.05;1.55;;;20.30;53.90;;;;;;5032836;28;20073;-59
2021/11/14 06:54:52;;;;;;;2.00;1.40;;;20.30;54.00;;;;;;5030033;28;20718;-60
2021/11/14 06:57:19;;;;;;;2.20;1.50;;;20.30;54.00;;;;;;5032595;28;20474;-59
2021/11/14 06:59:46;;;;;;;2.03;1.50;;;20.30;54.00;;;;;;5031668;28;20449;-60
2021/11/14 07:02:12;;;;;;;2.30;1.65;;;20.30;54.00;;;;;;5032569;28;20037;-60
2021/11/14 07:04:38;;;;;;;2.33;1.60;;;20.30;54.00;;;;;;5032531;28;20040;-60
2021/11/14 07:07:03;;;;;;;2.08;1.50;;;20.30;54.00;;;;;;5036100;28;20034;-60
2021/11/14 07:09:29;;;;;;;2.45;1.50;;;20.30;54.00;;;;;;5035154;28;20033;-56
2021/11/14 07:11:55;;;;;;;2.20;1.52;;;20.30;54.10;;;;;;5039083;28;20352;-60
2021/11/14 07:14:25;;;;;;;2.15;1.48;;;20.30;54.00;;;;;;5031896;28;20053;-60
2021/11/14 07:16:51;;;;;;;2.13;1.42;;;20.30;54.10;;;;;;5039926;28;20037;-59
2021/11/14 07:19:18;;;;;;;2.08;1.35;;;20.30;54.10;;;;;;5028509;28;20144;-57
2021/11/14 07:21:44;;;;;;;2.15;1.50;;;20.30;54.10;;;;;;5038794;28;20044;-59
2021/11/14 07:24:10;;;;;;;2.28;1.60;;;20.30;54.10;;;;;;5027382;28;20026;-60
2021/11/14 07:26:36;;;;;;;2.15;1.50;;;20.20;54.10;;;;;;5041173;28;20036;-59
2021/11/14 07:29:03;;;;;;;1.73;1.30;;;20.30;54.10;;;;;;5035543;28;20063;-61
2021/11/14 07:31:28;;;;;;;2.03;1.42;;;20.30;54.20;;;;;;5029242;28;20651;-60
2021/11/14 07:33:54;;;;;;;2.20;1.60;;;20.20;54.10;;;;;;5038086;28;20108;-60
2021/11/14 07:36:19;;;;;;;2.40;1.50;;;20.30;54.20;;;;;;5036586;28;20500;-59
2021/11/14 07:38:45;;;;;;;2.40;1.60;;;20.30;54.20;;;;;;5034838;28;20125;-57
2021/11/14 07:41:11;;;;;;;2.30;1.60;;;20.30;54.20;;;;;;5026699;28;20720;-60
2021/11/14 07:43:36;;;;;;;1.88;1.38;;;20.20;54.10;;;;;;5024810;28;20106;-60
2021/11/14 07:46:02;;;;;;;2.40;1.60;;;20.20;54.20;;;;;;5030492;28;20129;-60
2021/11/14 07:48:28;;;;;;;1.98;1.45;;;20.20;54.20;;;;;;5029788;28;20068;-57
2021/11/14 07:50:54;;;;;;;2.40;1.70;;;20.20;54.10;;;;;;5032659;28;20118;-57
2021/11/14 07:53:22;;;;;;;2.17;1.48;;;20.20;54.10;;;;;;5034999;28;20029;-60
2021/11/14 07:55:49;;;;;;;2.22;1.63;;;20.30;54.20;;;;;;5039665;28;20033;-57
2021/11/14 07:58:15;;;;;;;2.20;1.50;;;20.20;54.10;;;;;;5032519;28;20045;-60
2021/11/14 08:00:40;;;;;;;2.80;1.80;;;20.20;54.10;;;;;;5041258;28;20052;-58
2021/11/14 08:03:06;;;;;;;2.58;1.60;;;20.20;54.10;;;;;;5038824;28;20445;-59
2021/11/14 08:05:32;;;;;;;2.20;1.52;;;20.20;54.10;;;;;;5039720;28;20112;-60
2021/11/14 08:07:58;;;;;;;2.10;1.60;;;20.20;54.10;;;;;;5030501;28;20048;-59
2021/11/14 08:10:25;;;;;;;2.40;1.60;;;20.20;54.20;;;;;;5045002;28;20047;-60
2021/11/14 08:12:51;;;;;;;2.35;1.65;;;20.20;54.20;;;;;;5035650;28;20381;-60
2021/11/14 08:15:18;;;;;;;2.15;1.70;;;20.20;54.20;;;;;;5033554;28;20029;-58
2021/11/14 08:17:44;;;;;;;2.45;1.65;;;20.20;54.20;;;;;;5036881;28;20151;-57
2021/11/14 08:20:10;;;;;;;2.13;1.50;;;20.20;54.20;;;;;;5040401;28;20034;-58
2021/11/14 08:22:36;;;;;;;1.88;1.40;;;20.20;54.20;;;;;;5037082;28;20044;-59
2021/11/14 08:25:04;;;;;;;2.50;1.55;;;20.20;54.20;;;;;;5043903;28;20013;-60
2021/11/14 08:27:31;;;;;;;2.33;1.55;;;20.20;54.20;;;;;;5034155;28;20081;-59
2021/11/14 08:29:58;;;;;;;2.20;1.50;;;20.20;54.20;;;;;;5041039;28;20112;-58
2021/11/14 08:32:24;;;;;;;2.78;1.80;;;20.20;54.20;;;;;;5030201;28;20068;-59
2021/11/14 08:34:50;;;;;;;2.38;1.60;;;20.20;54.20;;;;;;5042097;28;20025;-59
2021/11/14 08:37:15;;;;;;;2.42;1.67;;;20.20;54.20;;;;;;5042563;28;20037;-60
2021/11/14 08:39:42;;;;;;;2.50;1.60;;;20.20;54.20;;;;;;5035237;28;20068;-59
2021/11/14 08:42:08;;;;;;;2.20;1.50;;;20.20;54.10;;;;;;5034802;28;20087;-57
2021/11/14 08:44:35;;;;;;;2.55;1.70;;;20.20;54.20;;;;;;5039072;28;20658;-59
2021/11/14 08:47:00;;;;;;;3.08;1.50;;;20.20;54.20;;;;;;5041417;28;20723;-60
2021/11/14 08:49:26;;;;;;;2.13;1.50;;;20.20;54.20;;;;;;5041693;28;20113;-60
2021/11/14 08:51:52;;;;;;;2.00;1.55;;;20.20;54.20;;;;;;5034183;28;20363;-59
2021/11/14 08:54:19;;;;;;;2.25;1.80;;;20.20;54.20;;;;;;5040494;28;20063;-60
2021/11/14 08:56:45;;;;;;;2.47;1.70;;;20.20;54.20;;;;;;5036344;28;20057;-60
2021/11/14 08:59:11;;;;;;;2.85;1.67;;;20.20;54.20;;;;;;5038316;28;20069;-58
2021/11/14 09:01:37;;;;;;;2.42;1.80;;;20.20;54.20;;;;;;5034824;28;20083;-60
2021/11/14 09:04:05;;;;;;;2.20;1.50;;;20.20;54.20;;;;;;5065634;28;20025;-59
2021/11/14 09:06:31;;;;;;;2.50;1.80;;;20.20;54.20;;;;;;5033067;28;20057;-60
2021/11/14 09:08:57;;;;;;;2.40;1.63;;;20.10;54.20;;;;;;5035155;28;20052;-60
2021/11/14 09:11:23;;;;;;;2.40;2.00;;;20.20;54.30;;;;;;5040004;28;20064;-59
2021/11/14 09:13:49;;;;;;;2.45;1.70;;;20.20;54.20;;;;;;5037584;28;20029;-59
2021/11/14 09:16:15;;;;;;;2.85;1.90;;;20.10;54.10;;;;;;5031134;28;20099;-58
2021/11/14 09:18:41;;;;;;;2.95;1.90;;;20.20;54.20;;;;;;5038657;28;20032;-58
2021/11/14 09:21:07;;;;;;;2.25;1.52;;;20.10;54.20;;;;;;5034912;28;20035;-57
2021/11/14 09:23:33;;;;;;;2.70;1.90;;;20.10;54.20;;;;;;5037280;28;20154;-58
2021/11/14 09:25:59;;;;;;;3.08;1.88;;;20.20;54.30;;;;;;5029336;28;20067;-56
2021/11/14 09:28:25;;;;;;;2.60;1.80;;;20.10;54.20;;;;;;5034386;28;20093;-60
2021/11/14 09:30:51;;;;;;;2.67;1.70;;;20.20;54.30;;;;;;5032778;28;20580;-60
2021/11/14 09:33:18;;;;;;;2.20;1.55;;;20.10;54.20;;;;;;5031943;28;20028;-59
2021/11/14 09:35:44;;;;;;;2.80;1.73;;;20.10;54.20;;;;;;5041954;28;20029;-58
2021/11/14 09:38:10;;;;;;;3.00;1.83;;;20.10;54.20;;;;;;5034856;28;20018;-60
2021/11/14 09:40:38;;;;;;;3.83;1.75;;;20.10;54.20;;;;;;5037531;28;20029;-58
2021/11/14 09:43:04;;;;;;;3.08;1.75;;;20.10;54.20;;;;;;5028676;28;20025;-59
2021/11/14 09:45:32;;;;;;;2.15;1.60;;;20.20;54.30;;;;;;5035456;28;20111;-59
2021/11/14 09:47:58;;;;;;;2.60;1.90;;;20.20;54.20;;;;;;5040765;28;20091;-58
2021/11/14 09:50:25;;;;;;;2.60;1.77;;;20.10;54.20;;;;;;5035029;28;20029;-58
2021/11/14 09:52:55;;;;;;;3.95;1.80;;;20.20;54.20;;;;;;5042336;28;20562;-60
2021/11/14 09:55:22;;;;;;;3.10;1.85;;;20.10;54.20;;;;;;5032995;28;20013;-60
2021/11/14 09:57:48;;;;;;;2.85;1.80;;;20.10;54.20;;;;;;5036377;28;20032;-60
2021/11/14 10:00:16;;;;;;;2.72;1.90;;;20.10;54.20;;;;;;5032116;28;20425;-60
2021/11/14 10:02:42;;;;;;;2.67;1.92;;;20.20;54.20;;;;;;5034088;28;20083;-60
2021/11/14 10:05:10;;;;;;;2.80;1.90;;;20.10;54.20;;;;;;5033141;28;20609;-59
2021/11/14 10:07:37;;;;;;;3.35;2.03;;;20.10;54.20;;;;;;5029767;28;20627;-60
2021/11/14 10:10:03;;;;;;;3.25;1.92;;;20.10;54.20;;;;;;5036246;28;20028;-59
2021/11/14 10:12:32;;;;;;;3.65;1.70;;;20.10;54.20;;;;;;5029180;28;20033;-61
2021/11/14 10:15:13;;;;;;;2.90;1.93;;;20.10;54.20;;;;;;5037847;28;20102;-60
2021/11/14 10:17:46;;;;;;;2.58;1.80;;;20.10;54.30;;;;;;5031876;28;20094;-59
2021/11/14 10:20:16;;;;;;;3.33;2.22;;;20.10;54.20;;;;;;5029655;28;20115;-59
2021/11/14 10:22:45;;;;;;;3.15;2.20;;;20.10;54.20;;;;;;5023108;28;20032;-60
2021/11/14 10:25:13;;;;;;;2.80;1.80;;;20.10;54.30;;;;;;5028064;28;20049;-60
2021/11/14 10:27:39;;;;;;;2.78;1.88;;;20.10;54.30;;;;;;5025530;28;20040;-59
2021/11/14 10:30:09;;;;;;;3.20;2.20;;;20.10;54.30;;;;;;5032554;28;20040;-60
2021/11/14 10:32:35;;;;;;;2.83;2.00;;;20.10;54.30;;;;;;5026726;28;20049;-57
2021/11/14 10:35:02;;;;;;;2.95;2.22;;;20.10;54.30;;;;;;5030728;28;20036;-59
2021/11/14 10:37:39;;;;;;;2.83;1.90;;;20.10;54.30;;;;;;5036798;28;20152;-60
2021/11/14 10:40:06;;;;;;;3.83;2.03;;;20.10;54.30;;;;;;5037534;28;20105;-60
2021/11/14 10:42:33;;;;;;;3.92;2.00;;;20.10;54.30;;;;;;5032091;28;20033;-60
2021/11/14 10:45:02;;;;;;;4.25;2.20;;;20.10;54.30;;;;;;5034431;28;20057;-60
2021/11/14 10:47:30;;;;;;;3.38;2.20;;;20.10;54.30;;;;;;5028868;28;20025;-60
2021/11/14 10:49:56;;;;;;;3.05;2.05;;;20.10;54.30;;;;;;5030599;28;20047;-60
2021/11/14 10:52:24;;;;;;;3.10;1.90;;;20.10;54.30;;;;;;5028851;28;20036;-59
2021/11/14 10:54:57;;;;;;;3.63;2.10;;;20.10;54.30;;;;;;5027673;28;20048;-57
2021/11/14 10:57:31;;;;;;;3.67;2.13;;;20.10;54.30;;;;;;5030166;28;20044;-59
2021/11/14 10:59:57;;;;;;;5.15;2.20;;;20.10;54.40;;;;;;5032768;28;20033;-56
2021/11/14 11:02:25;;;;;;;3.20;2.22;;;20.10;54.30;;;;;;5032679;28;20516;-59
2021/11/14 11:04:52;;;;;;;3.53;2.33;;;20.10;54.40;;;;;;5032529;28;20113;-60
2021/11/14 11:07:18;;;;;;;3.35;2.13;;;20.10;54.40;;;;;;5035483;28;20029;-58
2021/11/14 11:09:44;;;;;;;3.33;2.20;;;20.10;54.40;;;;;;5038723;28;20144;-58
2021/11/14 11:12:23;;;;;;;3.83;2.20;;;20.10;54.40;;;;;;5037149;28;20148;-59
2021/11/14 11:14:52;;;;;;;;;;;20.10;54.40;;;;;;5036041;28;20464;-60
2021/11/14 11:17:18;;;;;;;2.97;2.17;;;20.10;54.50;;;;;;5036720;28;20344;-59
2021/11/14 11:19:44;;;;;;;3.00;2.20;;;20.10;54.40;;;;;;5032974;28;20117;-61
2021/11/14 11:22:09;;;;;;;3.40;2.25;;;20.10;54.50;;;;;;5036926;28;20049;-59
2021/11/14 11:24:45;;;;;;;3.30;2.15;;;20.10;54.40;;;;;;5037996;28;20060;-59
2021/11/14 11:27:11;;;;;;;3.85;2.20;;;20.10;54.50;;;;;;5033656;28;20385;-59
2021/11/14 11:29:39;;;;;;;3.38;2.42;;;20.10;54.50;;;;;;5036090;28;20053;-59
2021/11/14 11:32:10;;;;;;;3.70;2.15;;;20.10;54.50;;;;;;5035528;28;20166;-60
2021/11/14 11:34:36;;;;;;;3.30;2.30;;;20.10;54.50;;;;;;5036850;28;20052;-59
2021/11/14 11:37:02;;;;;;;3.65;2.42;;;20.10;54.50;;;;;;5039029;28;20621;-59
2021/11/14 11:39:28;;;;;;;3.72;2.50;;;20.10;54.50;;;;;;5039074;28;20785;-59
2021/11/14 11:41:57;;;;;;;3.63;2.38;;;20.10;54.50;;;;;;5036829;28;20029;-56
2021/11/14 11:44:23;;;;;;;3.85;2.60;;;20.10;54.50;;;;;;5033930;28;20040;-59
2021/11/14 11:46:51;;;;;;;3.60;2.35;;;20.10;54.50;;;;;;5036564;28;20064;-59
2021/11/14 11:49:23;;;;;;;3.85;2.42;;;20.10;54.60;;;;;;5038225;28;20029;-59
2021/11/14 11:51:54;;;;;;;3.42;2.38;;;20.10;54.50;;;;;;5039482;28;20536;-57
2021/11/14 11:54:24;;;;;;;3.53;2.50;;;20.10;54.60;;;;;;5034304;28;20020;-59
2021/11/14 11:57:03;;;;;;;3.75;2.20;;;20.10;54.50;;;;;;5032153;28;20075;-55
2021/11/14 11:59:30;;;;;;;3.53;2.25;;;20.10;54.60;;;;;;5030784;28;20140;-59
2021/11/14 12:02:04;;;;;;;4.43;2.65;;;20.10;54.50;;;;;;5032035;28;20118;-56
2021/11/14 12:04:33;;;;;;;4.90;2.60;;;20.10;54.50;;;;;;5032767;28;20048;-58
2021/11/14 12:07:20;;;;;;;3.78;2.50;;;20.10;54.50;;;;;;5026787;28;20875;-56
2021/11/14 12:09:48;;;;;;;3.45;2.20;;;20.10;54.60;;;;;;5029793;28;20116;-60
2021/11/14 12:12:36;;;;;;;5.97;2.40;;;20.10;54.60;;;;;;5035073;28;20022;-59
2021/11/14 12:15:16;;;;;;;4.55;2.40;;;20.10;54.70;;;;;;5032457;28;20041;-58
2021/11/14 12:17:58;;;;;;;3.80;2.20;;;20.10;54.60;;;;;;5036366;28;20037;-60
2021/11/14 12:20:26;;;;;;;3.88;2.42;;;20.10;54.60;;;;;;5033879;28;20048;-57
2021/11/14 12:22:53;;;;;;;3.83;2.55;;;20.10;54.70;;;;;;5036304;28;20025;-60
2021/11/14 12:25:36;;;;;;;3.25;2.30;;;20.10;54.70;;;;;;5032716;28;20032;-57
2021/11/14 12:28:14;;;;;;;3.67;2.25;;;20.10;54.70;;;;;;5034067;28;20021;-58
2021/11/14 12:31:03;;;;;;;4.28;2.60;;;20.10;54.80;;;;;;5032680;28;22153;-59
2021/11/14 12:33:32;;;;;;;4.90;2.40;;;20.10;54.80;;;;;;5032676;28;20163;-59
2021/11/14 12:36:08;;;;;;;4.00;2.57;;;20.10;54.70;;;;;;5033095;28;20033;-60
2021/11/14 12:38:34;;;;;;;3.50;2.45;;;20.10;54.70;;;;;;5030906;28;20033;-59
2021/11/14 12:41:03;;;;;;;3.58;2.33;;;20.10;55.30;;;;;;5036890;28;20074;-59
2021/11/14 12:43:36;;;;;;;2.90;2.10;;;20.10;54.80;;;;;;5029771;28;20083;-59
2021/11/14 12:46:09;;;;;;;3.92;2.50;;;20.10;54.90;;;;;;5037399;28;20032;-59
2021/11/14 12:48:38;;;;;;;4.35;2.45;;;20.10;54.90;;;;;;5039750;28;20025;-58